Time;durP1;ratioP1;P1;durP2;ratioP2;P2;SDS_P1;SDS_P2;PMS_P1;PMS_P2;Temp;Humidity;BMP_temperature;BMP_pressure;BME280_temperature;BME280_humidity;BME280_pressure;Samples;Min_cycle;Max_cycle;Signal;HPM_P1;HPM_P2
2022/02/04 00:05:03;;;;;;;9.67;2.60;;;7.90;99.90;;;;;;4944020;28;20739;-81
2022/02/04 00:21:24;;;;;;;8.97;2.97;;;7.80;99.90;;;;;;4966526;28;20238;-81
2022/02/04 00:23:51;;;;;;;9.27;2.93;;;7.80;99.90;;;;;;4966249;28;20596;-81
2022/02/04 00:26:22;;;;;;;12.50;4.13;;;7.80;99.90;;;;;;4984743;28;20348;-81
2022/02/04 00:28:56;;;;;;;16.87;4.60;;;7.80;99.90;;;;;;4979973;28;20515;-82
2022/02/04 00:31:34;;;;;;;12.97;3.53;;;7.80;99.90;;;;;;4967569;28;20241;-84
2022/02/04 00:34:06;;;;;;;22.90;5.10;;;7.90;99.90;;;;;;4967580;28;20197;-82
2022/02/04 00:36:40;;;;;;;16.77;5.20;;;7.90;99.90;;;;;;4966636;28;20345;-82
2022/02/04 00:39:11;;;;;;;13.30;3.57;;;7.90;99.90;;;;;;4967464;28;20483;-81
2022/02/04 00:41:40;;;;;;;14.80;3.93;;;8.00;99.90;;;;;;4977544;28;20215;-81
2022/02/04 00:44:11;;;;;;;13.73;3.77;;;8.00;99.90;;;;;;4986316;28;20222;-81
2022/02/04 00:46:53;;;;;;;11.67;3.77;;;8.00;99.90;;;;;;4987490;28;20196;-81
2022/02/04 00:49:27;;;;;;;12.90;3.60;;;8.00;99.90;;;;;;4989321;28;20218;-82
2022/02/04 00:52:01;;;;;;;14.27;3.10;;;8.10;99.90;;;;;;4987335;28;20200;-81
2022/02/04 00:54:41;;;;;;;9.93;3.07;;;8.10;99.90;;;;;;4985013;28;20215;-80
2022/02/04 00:57:15;;;;;;;12.33;3.60;;;8.00;99.90;;;;;;4970342;28;20220;-80
2022/02/04 01:13:33;;;;;;;18.80;3.63;;;8.00;99.90;;;;;;4973663;28;20203;-81
2022/02/04 01:26:59;;;;;;;21.03;5.23;;;8.10;99.90;;;;;;4968984;28;20609;-81
2022/02/04 01:29:31;;;;;;;17.37;3.30;;;8.10;99.90;;;;;;4968865;28;20216;-81
2022/02/04 01:31:57;;;;;;;14.17;4.37;;;8.10;99.90;;;;;;4968284;28;20197;-79
2022/02/04 01:34:25;;;;;;;16.87;4.27;;;8.10;99.90;;;;;;4968278;28;20227;-82
2022/02/04 01:36:52;;;;;;;12.40;3.43;;;8.20;99.90;;;;;;4968882;28;20251;-82
2022/02/04 01:39:19;;;;;;;14.63;3.43;;;8.10;99.90;;;;;;4968986;28;20209;-81
2022/02/04 01:41:46;;;;;;;14.77;3.80;;;8.10;99.90;;;;;;4966840;28;20204;-81
2022/02/04 01:44:24;;;;;;;16.20;4.73;;;8.10;99.90;;;;;;4969599;28;20212;-81
2022/02/04 01:46:51;;;;;;;16.77;3.63;;;8.10;99.90;;;;;;4969515;28;20208;-81
2022/02/04 01:49:18;;;;;;;21.00;3.63;;;8.10;99.90;;;;;;4970872;28;20212;-81
2022/02/04 01:51:47;;;;;;;26.83;5.60;;;8.10;99.90;;;;;;4969199;28;20239;-77
2022/02/04 01:54:14;;;;;;;18.27;4.20;;;8.10;99.90;;;;;;4969230;28;20208;-81
2022/02/04 01:56:42;;;;;;;14.17;4.30;;;8.20;99.90;;;;;;4969049;28;20219;-81
2022/02/04 01:59:09;;;;;;;16.90;4.87;;;8.20;99.90;;;;;;4969315;28;20204;-82
2022/02/04 02:01:36;;;;;;;11.17;3.57;;;8.20;99.90;;;;;;4968012;28;20204;-81
2022/02/04 02:04:05;;;;;;;19.23;4.30;;;8.10;99.90;;;;;;4968826;28;20220;-82
2022/02/04 02:06:50;;;;;;;21.33;4.87;;;8.10;99.90;;;;;;4968918;28;20197;-80
2022/02/04 02:09:18;;;;;;;17.83;4.50;;;8.10;99.90;;;;;;4968864;28;20281;-83
2022/02/04 02:11:48;;;;;;;21.00;4.87;;;8.10;99.90;;;;;;4968318;28;20204;-83
2022/02/04 02:14:17;;;;;;;17.60;4.50;;;8.10;99.90;;;;;;4968731;28;20602;-81
2022/02/04 02:32:59;;;;;;;17.10;4.00;;;8.10;99.90;;;;;;4968177;28;20219;-80
2022/02/04 02:34:00;;;;;;;20.37;3.53;;;8.20;99.90;;;;;;4968529;28;20277;-79
2022/02/04 02:44:53;;;;;;;23.27;3.77;;;8.30;99.90;;;;;;4953946;28;20515;-82
2022/02/04 02:47:33;;;;;;;16.37;3.70;;;8.30;99.90;;;;;;4978538;28;20324;-81
2022/02/04 02:50:19;;;;;;;21.97;4.87;;;8.20;99.90;;;;;;4988021;28;20227;-81
2022/02/04 02:53:16;;;;;;;17.37;4.30;;;8.30;99.90;;;;;;4970988;28;20208;-80
2022/02/04 02:55:51;;;;;;;17.40;5.50;;;8.30;99.90;;;;;;4966693;28;20215;-82
2022/02/04 02:58:20;;;;;;;20.77;4.83;;;8.30;99.90;;;;;;4967616;28;20228;-82
2022/02/04 03:00:57;;;;;;;23.37;5.33;;;8.30;99.90;;;;;;4967415;28;20283;-82
2022/02/04 03:03:28;;;;;;;25.17;5.53;;;8.30;99.90;;;;;;4968770;28;20212;-82
2022/02/04 03:05:55;;;;;;;17.70;4.27;;;8.30;99.90;;;;;;4967324;28;20216;-83
2022/02/04 03:08:22;;;;;;;16.27;4.53;;;8.30;99.90;;;;;;4968817;28;20209;-81
2022/02/04 03:10:53;;;;;;;15.77;4.60;;;8.30;99.90;;;;;;4967911;28;20204;-80
2022/02/04 03:13:20;;;;;;;15.30;4.47;;;8.30;99.90;;;;;;4966104;28;20327;-82
2022/02/04 03:15:55;;;;;;;30.40;6.53;;;8.30;99.90;;;;;;4966666;28;20240;-81
2022/02/04 03:18:24;;;;;;;23.83;5.37;;;8.30;99.90;;;;;;4968390;28;20262;-83
2022/02/04 03:20:54;;;;;;;25.90;5.03;;;8.30;99.90;;;;;;4967568;28;20213;-81
2022/02/04 03:23:23;;;;;;;23.43;4.80;;;8.40;99.90;;;;;;4967584;28;20236;-82
2022/02/04 03:25:57;;;;;;;19.80;4.90;;;8.40;99.90;;;;;;4967530;28;20692;-81
2022/02/04 03:28:27;;;;;;;20.70;4.63;;;8.40;99.90;;;;;;4968541;28;20331;-82
2022/02/04 03:30:56;;;;;;;16.73;4.10;;;8.30;99.90;;;;;;4967846;28;20244;-84
2022/02/04 03:33:26;;;;;;;15.13;4.37;;;8.40;99.90;;;;;;4967190;28;20312;-81
2022/02/04 03:35:53;;;;;;;21.70;4.77;;;8.30;99.90;;;;;;4967045;28;20319;-81
2022/02/04 03:38:20;;;;;;;16.03;4.20;;;8.30;99.90;;;;;;4967791;28;20239;-81
2022/02/04 03:40:46;;;;;;;24.93;4.20;;;8.30;99.90;;;;;;4965875;28;20623;-82
2022/02/04 03:43:15;;;;;;;19.83;4.77;;;8.40;99.90;;;;;;4967721;28;20209;-81
2022/02/04 03:45:42;;;;;;;17.33;4.33;;;8.40;99.90;;;;;;4970130;28;20238;-82
2022/02/04 03:48:09;;;;;;;24.53;4.67;;;8.40;99.90;;;;;;4977378;28;20228;-82
2022/02/04 03:50:36;;;;;;;24.07;4.53;;;8.40;99.90;;;;;;4966931;28;20205;-80
2022/02/04 03:53:03;;;;;;;22.97;5.10;;;8.40;99.90;;;;;;4967152;28;20216;-79
2022/02/04 03:55:31;;;;;;;26.03;5.90;;;8.40;99.90;;;;;;4966837;28;20248;-82
2022/02/04 03:57:57;;;;;;;17.00;5.83;;;8.40;99.90;;;;;;4966633;28;20225;-82
2022/02/04 04:00:26;;;;;;;19.37;4.53;;;8.40;99.90;;;;;;4966663;28;20232;-81
2022/02/04 04:02:52;;;;;;;18.53;4.30;;;8.40;99.90;;;;;;4966540;28;20209;-82
2022/02/04 04:05:20;;;;;;;21.40;4.40;;;8.40;99.90;;;;;;4966571;28;20208;-80
2022/02/04 04:07:49;;;;;;;11.27;3.20;;;8.40;99.90;;;;;;4965866;28;20260;-81
2022/02/04 04:10:20;;;;;;;18.70;3.83;;;8.40;99.90;;;;;;4965485;28;20232;-80
2022/02/04 04:12:47;;;;;;;21.87;4.50;;;8.40;99.90;;;;;;4965784;28;20611;-81
2022/02/04 04:15:16;;;;;;;25.03;4.63;;;8.40;99.90;;;;;;4965498;28;20236;-80
2022/02/04 04:17:45;;;;;;;18.43;3.93;;;8.40;99.90;;;;;;4966536;28;20988;-80
2022/02/04 04:20:15;;;;;;;16.60;3.60;;;8.40;99.90;;;;;;4966678;28;20204;-80
2022/02/04 04:22:42;;;;;;;22.33;4.07;;;8.40;99.90;;;;;;4965464;28;20209;-81
2022/02/04 04:25:10;;;;;;;21.70;4.47;;;8.40;99.90;;;;;;4965275;28;20197;-81
2022/02/04 04:27:38;;;;;;;18.13;4.43;;;8.40;99.90;;;;;;4965918;28;20200;-81
2022/02/04 04:30:06;;;;;;;26.37;5.70;;;8.40;99.90;;;;;;4966139;28;20282;-81
2022/02/04 04:32:33;;;;;;;18.13;4.23;;;8.40;99.90;;;;;;4966291;28;20196;-82
2022/02/04 04:35:01;;;;;;;21.20;3.57;;;8.40;99.90;;;;;;4966575;28;20259;-80
2022/02/04 04:37:28;;;;;;;21.80;4.10;;;8.40;99.90;;;;;;4965621;28;20257;-81
2022/02/04 04:40:10;;;;;;;22.97;4.77;;;8.40;99.90;;;;;;4966502;28;20204;-80
2022/02/04 04:42:51;;;;;;;21.77;4.50;;;8.40;99.90;;;;;;4966255;28;20227;-80
2022/02/04 05:27:16;;;;;;;21.67;3.73;;;8.50;99.90;;;;;;4964933;28;20655;-78
2022/02/04 05:29:35;;;;;;;23.60;3.17;;;8.50;99.90;;;;;;4964639;28;20207;-81
2022/02/04 05:32:03;;;;;;;22.93;5.13;;;8.50;99.90;;;;;;4964771;28;20212;-79
2022/02/04 05:34:30;;;;;;;16.13;3.60;;;8.50;99.90;;;;;;4965125;28;20221;-79
2022/02/04 05:37:02;;;;;;;20.57;4.53;;;8.50;99.90;;;;;;4967893;28;20248;-81
2022/02/04 05:39:37;;;;;;;17.93;4.13;;;8.50;99.90;;;;;;4967788;28;20232;-80
2022/02/04 05:42:06;;;;;;;21.83;3.77;;;8.50;99.90;;;;;;4968707;28;20208;-80
2022/02/04 05:44:37;;;;;;;12.07;3.13;;;8.50;99.90;;;;;;4969275;28;20382;-79
2022/02/04 05:47:12;;;;;;;14.73;2.70;;;8.50;99.90;;;;;;4979553;28;20212;-80
2022/02/04 05:49:45;;;;;;;13.73;3.97;;;8.50;99.90;;;;;;4968757;28;20540;-80
2022/02/04 05:52:17;;;;;;;19.87;3.33;;;8.50;99.90;;;;;;4981759;28;20207;-80
2022/02/04 05:54:59;;;;;;;17.33;3.27;;;8.50;99.90;;;;;;4981189;28;20251;-79
2022/02/04 05:57:39;;;;;;;24.43;3.63;;;8.40;99.90;;;;;;4968806;28;20220;-81
2022/02/04 06:00:20;;;;;;;16.27;2.90;;;8.40;99.90;;;;;;4967688;28;20215;-81
2022/02/04 06:02:57;;;;;;;10.20;2.80;;;8.40;99.90;;;;;;4968420;28;20216;-82
2022/02/04 06:05:44;;;;;;;15.27;3.33;;;8.40;99.90;;;;;;4968390;28;20615;-81
2022/02/04 06:08:32;;;;;;;14.70;3.77;;;8.40;99.90;;;;;;4968855;28;20327;-80
2022/02/04 06:11:21;;;;;;;13.63;3.10;;;8.50;99.90;;;;;;4969082;28;20224;-81
2022/02/04 06:14:09;;;;;;;14.60;2.87;;;8.40;99.90;;;;;;4968615;28;20329;-83
2022/02/04 06:22:12;;;;;;;15.37;3.63;;;8.50;99.90;;;;;;4967924;28;20219;-79
2022/02/04 06:24:39;;;;;;;12.80;3.83;;;8.50;99.90;;;;;;4968964;28;20218;-82
2022/02/04 06:27:10;;;;;;;16.43;3.57;;;8.50;99.90;;;;;;4969142;28;20205;-81
2022/02/04 06:29:38;;;;;;;12.17;2.57;;;8.50;99.90;;;;;;4977688;28;20780;-81
2022/02/04 06:32:05;;;;;;;21.47;3.10;;;8.60;99.90;;;;;;4988855;28;20841;-81
2022/02/04 06:34:32;;;;;;;17.30;3.33;;;8.50;99.90;;;;;;4988471;28;20226;-82
2022/02/04 06:36:59;;;;;;;19.30;3.83;;;8.50;99.90;;;;;;4980929;28;20558;-82
2022/02/04 06:39:26;;;;;;;11.83;3.73;;;8.50;99.90;;;;;;4968010;28;20649;-80
2022/02/04 06:41:52;;;;;;;18.87;3.70;;;8.50;99.90;;;;;;4966741;28;20208;-80
2022/02/04 06:44:21;;;;;;;15.90;3.80;;;8.60;99.90;;;;;;4966461;28;20200;-81
2022/02/04 06:46:47;;;;;;;16.73;4.10;;;8.60;99.90;;;;;;4977819;28;20208;-80
2022/02/04 06:49:14;;;;;;;18.30;4.20;;;8.60;99.90;;;;;;4983500;28;20631;-80
2022/02/04 06:51:41;;;;;;;15.33;3.87;;;8.50;99.90;;;;;;4966945;28;20204;-79
2022/02/04 06:54:08;;;;;;;15.00;3.73;;;8.50;99.90;;;;;;4966963;28;20212;-82
2022/02/04 06:56:36;;;;;;;12.33;3.97;;;8.50;99.90;;;;;;4967135;28;20196;-80
2022/02/04 06:59:03;;;;;;;13.60;3.87;;;8.50;99.90;;;;;;4966293;28;20224;-79
2022/02/04 07:01:33;;;;;;;15.50;4.30;;;8.60;99.90;;;;;;4967192;28;20204;-81
2022/02/04 07:04:03;;;;;;;13.07;5.27;;;8.60;99.90;;;;;;4966449;28;20212;-78
2022/02/04 07:06:31;;;;;;;14.40;3.63;;;8.60;99.90;;;;;;4967277;28;20327;-79
2022/02/04 07:09:13;;;;;;;14.57;4.33;;;8.60;99.90;;;;;;4966699;28;20619;-79
2022/02/04 07:12:10;;;;;;;17.13;4.70;;;8.60;99.90;;;;;;4965591;28;20635;-80
2022/02/04 07:14:48;;;;;;;15.40;4.30;;;8.60;99.90;;;;;;4985318;28;20235;-81
2022/02/04 07:17:23;;;;;;;10.63;4.10;;;8.60;99.90;;;;;;4983359;28;20218;-79
2022/02/04 07:19:49;;;;;;;14.07;3.83;;;8.60;99.90;;;;;;4966534;28;20220;-79
2022/02/04 07:22:19;;;;;;;23.17;5.63;;;8.60;99.90;;;;;;4966327;28;20310;-81
2022/02/04 07:24:48;;;;;;;12.70;4.10;;;8.60;99.90;;;;;;4966042;28;20228;-79
2022/02/04 07:27:16;;;;;;;17.37;4.90;;;8.70;99.90;;;;;;4966478;28;20219;-81
2022/02/04 07:29:45;;;;;;;14.00;4.30;;;8.60;99.90;;;;;;4966185;28;20204;-79
2022/02/04 07:32:17;;;;;;;14.43;4.37;;;8.70;99.90;;;;;;4966241;28;20301;-81
2022/02/04 07:35:01;;;;;;;17.43;5.20;;;8.70;99.90;;;;;;4966278;28;20197;-79
2022/02/04 07:42:59;;;;;;;22.80;3.90;;;8.70;99.90;;;;;;5004176;28;20230;-78
2022/02/04 07:45:26;;;;;;;16.60;3.83;;;8.70;99.90;;;;;;4985449;28;20235;-80
2022/02/04 07:47:52;;;;;;;15.67;3.87;;;8.70;99.90;;;;;;5004067;28;20210;-78
2022/02/04 07:50:21;;;;;;;13.43;4.00;;;8.70;99.90;;;;;;5004300;28;20199;-81
2022/02/04 07:52:56;;;;;;;13.77;4.13;;;8.70;99.90;;;;;;4975897;28;20607;-79
2022/02/04 07:55:23;;;;;;;14.47;4.00;;;8.70;99.90;;;;;;4984998;28;20195;-80
2022/02/04 07:57:51;;;;;;;13.40;4.40;;;8.70;99.90;;;;;;4985148;28;20208;-79
2022/02/04 08:00:18;;;;;;;15.33;4.43;;;8.70;99.90;;;;;;4984355;28;20966;-84
2022/02/04 08:02:47;;;;;;;13.00;5.57;;;8.80;99.90;;;;;;4984769;28;20200;-82
2022/02/04 08:05:17;;;;;;;14.77;4.40;;;8.80;99.90;;;;;;4985022;28;20215;-81
2022/02/04 08:07:52;;;;;;;12.87;3.50;;;8.80;99.90;;;;;;4984276;28;20223;-79
2022/02/04 08:10:27;;;;;;;16.13;4.40;;;8.80;99.90;;;;;;4978591;28;20214;-81
2022/02/04 08:16:05;;;;;;;13.17;3.60;;;8.80;99.90;;;;;;4959812;28;20599;-81
2022/02/04 08:19:00;;;;;;;14.97;4.00;;;8.80;99.90;;;;;;5002250;28;20227;-80
2022/02/04 08:24:40;;;;;;;9.53;2.77;;;8.90;99.90;;;;;;4983069;28;20252;-80
2022/02/04 08:27:44;;;;;;;13.27;3.07;;;8.90;99.90;;;;;;4988892;28;20524;-81
2022/02/04 08:30:39;;;;;;;11.60;2.90;;;9.00;99.90;;;;;;4985270;28;20227;-79
2022/02/04 08:33:37;;;;;;;11.33;2.37;;;9.00;99.90;;;;;;4985554;28;20204;-81
2022/02/04 08:36:21;;;;;;;14.43;3.50;;;9.00;99.90;;;;;;4984401;28;20203;-80
2022/02/04 08:39:01;;;;;;;15.27;3.03;;;9.10;99.90;;;;;;4984431;28;20904;-80
2022/02/04 08:47:22;;;;;;;11.53;3.17;;;9.10;99.90;;;;;;5004031;28;20205;-79
2022/02/04 08:50:12;;;;;;;9.93;2.80;;;9.20;99.90;;;;;;4990121;28;20255;-81
2022/02/04 08:52:49;;;;;;;16.67;3.17;;;9.20;99.90;;;;;;4986341;28;20294;-80
2022/02/04 08:55:22;;;;;;;10.03;3.10;;;9.20;99.90;;;;;;4985621;28;20627;-79
2022/02/04 08:58:01;;;;;;;13.77;3.00;;;9.30;99.90;;;;;;4984841;28;20204;-77
2022/02/04 09:00:33;;;;;;;12.37;3.00;;;9.30;99.90;;;;;;4985834;28;20227;-80
2022/02/04 09:03:13;;;;;;;9.97;2.47;;;9.30;99.90;;;;;;4983954;28;20514;-80
2022/02/04 09:05:43;;;;;;;7.70;2.30;;;9.30;99.90;;;;;;4984373;28;20201;-81
2022/02/04 09:08:23;;;;;;;12.77;2.70;;;9.40;99.90;;;;;;4985953;28;20207;-80
2022/02/04 09:10:52;;;;;;;13.77;3.07;;;9.40;99.90;;;;;;4987328;28;20242;-78
2022/02/04 09:18:47;;;;;;;12.23;2.80;;;9.40;99.90;;;;;;5006494;28;20270;-81
2022/02/04 09:21:49;;;;;;;10.03;2.33;;;9.50;99.90;;;;;;4999611;28;20236;-77
2022/02/04 09:24:20;;;;;;;10.50;2.70;;;9.50;99.90;;;;;;4987877;28;20199;-80
2022/02/04 09:26:46;;;;;;;6.73;2.70;;;9.50;99.90;;;;;;4988232;28;20215;-80
2022/02/04 09:29:15;;;;;;;11.30;2.50;;;9.50;99.90;;;;;;4988898;28;20303;-81
2022/02/04 09:31:42;;;;;;;11.67;2.20;;;9.60;99.90;;;;;;4987856;28;20200;-80
2022/02/04 09:34:10;;;;;;;13.73;3.97;;;9.60;99.90;;;;;;4987962;28;20362;-80
2022/02/04 09:36:37;;;;;;;9.87;2.40;;;9.60;99.90;;;;;;4988456;28;20211;-81
2022/02/04 09:39:06;;;;;;;9.13;2.90;;;9.60;99.90;;;;;;4987123;28;20250;-80
2022/02/04 09:41:33;;;;;;;11.13;2.43;;;9.60;99.90;;;;;;4988099;28;20211;-80
2022/02/04 09:44:00;;;;;;;10.73;2.53;;;9.60;99.90;;;;;;4987479;28;20231;-78
2022/02/04 09:46:34;;;;;;;15.43;3.47;;;9.60;99.90;;;;;;4995405;28;20203;-80
2022/02/04 09:49:01;;;;;;;9.53;2.50;;;9.70;99.90;;;;;;4999840;28;20204;-78
2022/02/04 09:51:46;;;;;;;12.23;3.23;;;9.60;99.90;;;;;;4985772;28;20599;-79
2022/02/04 10:08:40;;;;;;;15.63;3.70;;;9.80;99.90;;;;;;4986354;28;20638;-81
2022/02/04 10:14:15;;;;;;;11.83;2.90;;;9.80;99.90;;;;;;4984636;28;20226;-80
2022/02/04 10:17:06;;;;;;;15.90;3.03;;;9.80;99.90;;;;;;4986417;28;20211;-79
2022/02/04 10:19:48;;;;;;;11.87;3.13;;;9.80;99.90;;;;;;4986562;28;20224;-80
2022/02/04 10:22:17;;;;;;;10.83;3.30;;;9.70;99.90;;;;;;4985596;28;20211;-80
2022/02/04 10:24:53;;;;;;;11.03;3.37;;;9.70;99.90;;;;;;4986185;28;20199;-80
2022/02/04 10:27:21;;;;;;;18.67;3.20;;;9.70;99.90;;;;;;4986339;28;20210;-76
2022/02/04 10:29:53;;;;;;;11.60;3.03;;;9.60;99.90;;;;;;4986239;28;20204;-81
2022/02/04 10:32:24;;;;;;;11.23;3.57;;;9.60;99.90;;;;;;4985995;28;20195;-79
2022/02/04 10:35:02;;;;;;;9.17;2.80;;;9.60;99.90;;;;;;4985643;28;20304;-79
2022/02/04 10:37:32;;;;;;;10.67;2.83;;;9.60;99.90;;;;;;4985690;28;20556;-80
2022/02/04 10:40:12;;;;;;;14.43;3.03;;;9.60;99.90;;;;;;5003578;28;20796;-78
2022/02/04 10:42:55;;;;;;;9.87;2.70;;;9.60;99.90;;;;;;5005570;28;20210;-78
2022/02/04 10:45:34;;;;;;;9.67;2.93;;;9.60;99.90;;;;;;4999982;28;20227;-79
2022/02/04 10:48:16;;;;;;;13.07;3.40;;;9.60;99.90;;;;;;4994910;28;20211;-77
2022/02/04 10:56:47;;;;;;;10.17;2.57;;;9.70;99.90;;;;;;5000217;28;20245;-77
2022/02/04 10:59:37;;;;;;;14.57;2.97;;;9.70;99.90;;;;;;4983341;28;20228;-78
2022/02/04 11:05:02;;;;;;;9.13;2.47;;;9.60;99.90;;;;;;4983300;28;20207;-78
2022/02/04 11:08:02;;;;;;;16.20;3.10;;;9.60;99.90;;;;;;4985439;28;20263;-78
2022/02/04 11:10:43;;;;;;;9.30;3.50;;;9.60;99.90;;;;;;4984279;28;20200;-78
2022/02/04 11:33:23;;;;;;;9.37;3.33;;;9.40;99.90;;;;;;4984176;28;20503;-78
2022/02/04 11:35:42;;;;;;;14.40;3.43;;;9.30;99.90;;;;;;4984806;28;20622;-80
2022/02/04 11:44:02;;;;;;;11.77;3.67;;;9.20;99.90;;;;;;4931126;28;20211;-80
2022/02/04 11:52:43;;;;;;;13.90;3.40;;;9.20;99.90;;;;;;4991654;28;20234;-80
2022/02/04 11:55:33;;;;;;;12.10;3.63;;;9.20;99.90;;;;;;5005395;28;20222;-78
2022/02/04 11:58:04;;;;;;;14.57;3.87;;;9.20;99.90;;;;;;4999961;28;20211;-80
2022/02/04 12:00:36;;;;;;;9.63;3.50;;;9.10;99.90;;;;;;4984597;28;20224;-80
2022/02/04 12:03:24;;;;;;;12.17;4.40;;;9.20;99.90;;;;;;4985506;28;20215;-79
2022/02/04 12:05:52;;;;;;;12.07;3.83;;;9.10;99.90;;;;;;4985877;28;20235;-80
2022/02/04 12:08:28;;;;;;;16.93;4.60;;;9.10;99.90;;;;;;4987255;28;20499;-82
2022/02/04 12:11:00;;;;;;;14.47;3.50;;;9.10;99.90;;;;;;4985879;28;20211;-79
2022/02/04 12:13:29;;;;;;;17.83;3.97;;;9.10;99.90;;;;;;4985970;28;20200;-80
2022/02/04 12:15:58;;;;;;;13.07;4.07;;;9.10;99.90;;;;;;4985036;28;20224;-81
2022/02/04 12:19:00;;;;;;;16.37;4.20;;;9.10;99.90;;;;;;4985723;28;20231;-80
2022/02/04 12:21:27;;;;;;;14.03;2.37;;;9.00;99.90;;;;;;4986025;28;20404;-86
2022/02/04 12:23:55;;;;;;;11.87;2.40;;;8.70;99.90;;;;;;4989379;28;20223;-83
2022/02/04 12:26:29;;;;;;;8.40;1.97;;;8.40;99.90;;;;;;4986882;28;20223;-84
2022/02/04 12:29:01;;;;;;;4.53;1.60;;;8.00;99.90;;;;;;4986871;28;20551;-84
2022/02/04 12:31:30;;;;;;;8.47;1.77;;;7.70;99.90;;;;;;4990837;28;20196;-85
2022/02/04 12:33:58;;;;;;;10.03;1.37;;;7.40;99.90;;;;;;5002731;28;20743;-84
2022/02/04 12:36:27;;;;;;;9.40;1.40;;;7.20;99.90;;;;;;5009610;28;20291;-84
2022/02/04 12:38:57;;;;;;;9.70;3.03;;;7.20;99.90;;;;;;5009385;28;20534;-84
2022/02/04 12:41:27;;;;;;;7.17;1.70;;;7.10;99.90;;;;;;5009363;28;20234;-85
2022/02/04 12:43:56;;;;;;;6.73;2.60;;;6.90;99.90;;;;;;4989860;28;20211;-85
2022/02/04 12:46:26;;;;;;;8.00;1.33;;;6.80;99.90;;;;;;4998036;28;20558;-83
2022/02/04 12:49:06;;;;;;;5.27;1.47;;;6.70;99.90;;;;;;5004611;28;20204;-85
2022/02/04 12:51:37;;;;;;;2.83;0.93;;;6.60;99.90;;;;;;4993988;28;20203;-83
2022/02/04 12:54:04;;;;;;;5.20;0.70;;;6.50;99.90;;;;;;4994520;28;20195;-81
2022/02/04 12:56:37;;;;;;;2.63;0.97;;;6.40;99.90;;;;;;4990667;28;20203;-85
2022/02/04 13:02:16;;;;;;;3.50;1.00;;;6.20;99.90;;;;;;4991673;28;20222;-83
2022/02/04 13:07:34;;;;;;;4.80;0.97;;;6.00;99.90;;;;;;4991899;28;20643;-82
2022/02/04 13:10:02;;;;;;;4.40;1.00;;;5.80;99.90;;;;;;4991011;28;20211;-82
2022/02/04 13:12:29;;;;;;;6.57;1.93;;;5.80;99.90;;;;;;4990397;28;20215;-82
2022/02/04 13:14:56;;;;;;;6.20;1.90;;;5.90;99.90;;;;;;4990525;28;20223;-82
2022/02/04 13:17:36;;;;;;;3.43;1.30;;;5.90;99.90;;;;;;4990461;28;20204;-82
2022/02/04 13:20:05;;;;;;;10.97;2.10;;;5.90;99.90;;;;;;4990547;28;20266;-83
2022/02/04 13:22:32;;;;;;;3.87;1.50;;;5.90;99.90;;;;;;4990782;28;20211;-83
2022/02/04 13:25:11;;;;;;;1.77;0.87;;;5.80;99.90;;;;;;4989830;28;20203;-83
2022/02/04 13:27:38;;;;;;;3.60;1.50;;;5.70;99.90;;;;;;4991165;28;20246;-82
2022/02/04 13:30:25;;;;;;;2.50;1.47;;;5.70;99.90;;;;;;4990051;28;20605;-83
2022/02/04 13:32:53;;;;;;;3.13;1.47;;;5.70;99.90;;;;;;5005842;28;20199;-83
2022/02/04 13:35:29;;;;;;;1.60;0.80;;;5.60;99.90;;;;;;5010723;28;20207;-81
2022/02/04 13:38:03;;;;;;;3.13;1.40;;;5.60;99.90;;;;;;4992448;28;20234;-82
2022/02/04 13:40:44;;;;;;;2.43;1.00;;;5.70;99.90;;;;;;4989881;28;20243;-81
2022/02/04 13:43:28;;;;;;;7.67;2.80;;;5.60;99.90;;;;;;4990201;28;20299;-81
2022/02/04 13:46:01;;;;;;;2.00;0.93;;;5.60;99.90;;;;;;4994555;28;20207;-82
2022/02/04 13:48:42;;;;;;;4.97;1.30;;;5.60;99.90;;;;;;5010769;28;20214;-81
2022/02/04 13:51:21;;;;;;;4.63;0.93;;;5.60;99.90;;;;;;4990486;28;20286;-82
2022/02/04 13:54:09;;;;;;;8.87;3.30;;;5.60;99.90;;;;;;4989518;28;20976;-82
2022/02/04 13:56:45;;;;;;;3.77;1.37;;;5.60;99.90;;;;;;4988053;28;20583;-83
2022/02/04 13:59:19;;;;;;;4.57;1.37;;;5.60;99.90;;;;;;4990081;28;20225;-82
2022/02/04 14:01:55;;;;;;;12.40;5.67;;;5.60;99.90;;;;;;4989861;28;20299;-83
2022/02/04 14:04:24;;;;;;;4.00;1.37;;;5.50;99.90;;;;;;4991498;28;20301;-84
2022/02/04 14:07:07;;;;;;;10.13;2.43;;;5.50;99.90;;;;;;4989216;28;20511;-83
2022/02/04 14:09:37;;;;;;;9.73;6.20;;;5.50;99.90;;;;;;4990692;28;20210;-84
2022/02/04 14:12:15;;;;;;;8.37;4.83;;;5.40;99.90;;;;;;4990437;28;20586;-82
2022/02/04 14:14:42;;;;;;;6.33;2.87;;;5.40;99.90;;;;;;4989162;28;20228;-82
2022/02/04 14:17:09;;;;;;;4.17;1.40;;;5.40;99.90;;;;;;4990496;28;20447;-82
2022/02/04 14:19:38;;;;;;;7.13;2.60;;;5.50;99.90;;;;;;4990197;28;20208;-83
2022/02/04 14:22:05;;;;;;;5.07;1.37;;;5.50;99.90;;;;;;4990078;28;20235;-82
2022/02/04 14:24:32;;;;;;;19.43;9.27;;;5.50;99.90;;;;;;4990206;28;20211;-83
2022/02/04 14:26:59;;;;;;;12.60;6.00;;;5.50;99.90;;;;;;4989928;28;20211;-82
2022/02/04 14:29:34;;;;;;;6.37;3.73;;;5.60;99.90;;;;;;4990045;28;20742;-83
2022/02/04 14:32:07;;;;;;;6.37;1.60;;;5.60;99.90;;;;;;4990463;28;20218;-83
2022/02/04 14:34:58;;;;;;;6.80;1.30;;;5.60;99.90;;;;;;4990314;28;20294;-83
2022/02/04 14:37:46;;;;;;;3.70;1.07;;;5.60;99.90;;;;;;4991006;28;20317;-84
2022/02/04 14:51:40;;;;;;;3.03;1.10;;;5.40;99.90;;;;;;4990508;28;20194;-85
2022/02/04 14:54:12;;;;;;;5.43;2.33;;;5.40;99.90;;;;;;4990306;28;20315;-82
2022/02/04 15:02:25;;;;;;;6.10;2.40;;;5.40;99.90;;;;;;5193466;27;20634;-83
2022/02/04 15:04:54;;;;;;;4.13;1.53;;;5.30;99.90;;;;;;5166560;27;20193;-83
2022/02/04 15:07:21;;;;;;;14.30;4.53;;;5.30;99.90;;;;;;5166665;27;20274;-83
2022/02/04 15:09:52;;;;;;;17.63;9.20;;;5.30;99.90;;;;;;5166413;27;20193;-82
2022/02/04 15:12:19;;;;;;;5.67;3.10;;;5.20;99.90;;;;;;5167564;27;20201;-81
2022/02/04 15:14:47;;;;;;;2.83;2.03;;;5.20;99.90;;;;;;5167056;27;20251;-82
2022/02/04 15:17:14;;;;;;;5.40;1.60;;;5.30;99.90;;;;;;5166570;27;20190;-82
2022/02/04 15:19:44;;;;;;;7.93;2.93;;;5.30;99.90;;;;;;5167041;27;20205;-83
2022/02/04 15:22:11;;;;;;;6.37;1.63;;;5.30;99.90;;;;;;5167555;27;20316;-81
2022/02/04 15:24:38;;;;;;;8.57;1.97;;;5.40;99.90;;;;;;5166919;27;20549;-82
2022/02/04 15:27:06;;;;;;;6.13;2.13;;;5.40;99.90;;;;;;5166891;27;20197;-81
2022/02/04 15:29:37;;;;;;;5.87;3.70;;;5.50;99.90;;;;;;5158142;22;20741;-81
2022/02/04 15:32:05;;;;;;;4.37;2.83;;;5.50;99.90;;;;;;5124143;28;20188;-82
2022/02/04 15:34:33;;;;;;;7.53;1.97;;;5.50;99.90;;;;;;5125086;28;20210;-82
2022/02/04 15:37:02;;;;;;;7.27;2.80;;;5.50;99.90;;;;;;5122762;28;20269;-82
2022/02/04 15:39:30;;;;;;;7.73;1.87;;;5.50;99.90;;;;;;5124366;28;20214;-81
2022/02/04 15:42:03;;;;;;;4.17;1.70;;;5.50;99.90;;;;;;5124065;28;20226;-83
2022/02/04 15:44:38;;;;;;;5.17;1.33;;;5.60;99.90;;;;;;5121967;28;20239;-82
2022/02/04 15:50:06;;;;;;;8.77;2.83;;;5.70;99.90;;;;;;5103538;28;20603;-83
2022/02/04 15:52:58;;;;;;;6.10;1.80;;;5.70;99.90;;;;;;5103590;28;20583;-82
2022/02/04 15:55:49;;;;;;;5.57;2.40;;;5.70;99.90;;;;;;5084345;28;20204;-82
2022/02/04 15:58:40;;;;;;;6.00;2.10;;;5.80;99.90;;;;;;5083582;28;20298;-83
2022/02/04 16:03:50;;;;;;;7.10;1.83;;;5.70;99.90;;;;;;5111262;28;20285;-83
2022/02/04 16:06:19;;;;;;;9.23;3.60;;;5.70;99.90;;;;;;5122555;28;20200;-82
2022/02/04 16:08:49;;;;;;;18.03;2.73;;;5.60;99.90;;;;;;5123868;28;20290;-82
2022/02/04 16:11:31;;;;;;;10.33;2.73;;;5.60;99.90;;;;;;5122737;28;20196;-81
2022/02/04 16:14:09;;;;;;;11.80;3.60;;;5.70;99.90;;;;;;5087042;28;20258;-82
2022/02/04 16:16:39;;;;;;;17.30;4.47;;;5.80;99.90;;;;;;5112030;27;20207;-82
2022/02/04 16:19:10;;;;;;;8.47;2.37;;;5.80;99.90;;;;;;5130944;27;20187;-82
2022/02/04 16:21:49;;;;;;;15.93;3.70;;;5.90;99.90;;;;;;5132818;27;20219;-83
2022/02/04 16:26:56;;;;;;;11.40;4.00;;;5.90;99.90;;;;;;5895525;22;20251;-81
2022/02/04 16:29:23;;;;;;;13.77;4.63;;;5.90;99.90;;;;;;5105675;28;20273;-84
2022/02/04 16:31:51;;;;;;;16.40;5.20;;;5.90;99.90;;;;;;5089131;28;20197;-82
2022/02/04 16:34:19;;;;;;;18.47;3.97;;;5.90;99.90;;;;;;5088895;28;20201;-84
2022/02/04 16:36:49;;;;;;;17.43;4.23;;;5.90;99.90;;;;;;5099500;22;20236;-82
2022/02/04 16:39:18;;;;;;;15.93;3.97;;;6.00;99.90;;;;;;5088515;28;20253;-81
2022/02/04 16:41:53;;;;;;;12.63;4.93;;;6.00;99.90;;;;;;5093416;28;20224;-80
2022/02/04 16:44:21;;;;;;;15.73;4.53;;;6.00;99.90;;;;;;5108291;28;20204;-82
2022/02/04 16:46:48;;;;;;;14.43;4.73;;;6.00;99.90;;;;;;5107602;28;20203;-81
2022/02/04 16:49:15;;;;;;;15.00;5.30;;;6.00;99.90;;;;;;5097291;28;20226;-81
2022/02/04 16:51:42;;;;;;;18.33;7.00;;;6.10;99.90;;;;;;5087427;28;20209;-84
2022/02/04 16:54:09;;;;;;;15.77;5.83;;;6.10;99.90;;;;;;5087637;28;20204;-82
2022/02/04 16:56:37;;;;;;;18.43;5.53;;;6.10;99.90;;;;;;5087987;28;20205;-83
2022/02/04 16:59:04;;;;;;;11.53;3.17;;;6.10;99.90;;;;;;5086911;28;20197;-80
2022/02/04 17:01:33;;;;;;;15.13;3.53;;;6.20;99.90;;;;;;5085737;28;20216;-80
2022/02/04 17:04:00;;;;;;;15.47;4.60;;;6.20;99.90;;;;;;5086861;28;20550;-79